MPMG

Marcos A. Gelabert International Airport

Albrook, Panama
METAR MPMG 170300Z 32006KT CAVOK 25/20 Q1015 NOSIG
Observed Flight Rules
Jan-17 @ 03:00 UTC (4 hours ago) Visual Flight Rules
Wind Visibility Clouds
320° at 6 knots 10,000+ meters
  • Clear skies
Temperatures Readings
Current 25°C / 77°F
Dewpoint 20°C / 68°F
Humidity 74%
Altimeter 29.97" Hg
Pressure 1014.92 hPa
Elevation 13
METAR MPMG 170300Z 32006KT CAVOK 25/20 Q1015 NOSIG
Observed Flight Rules
Jan-17 @ 03:00 UTC
(4 hours ago)
VFR
Wind Visibility
320° at 6 knots 10,000+ meters
Clouds
  • Clear skies
Temperature Dewpoint
25°C / 77°F 20°C / 68°F
Humidity Altimeter Pressure
74% 29.97" Hg 1014.92 hPa